sensor_id;sensor_type;location;lat;lon;timestamp;P1;durP1;ratioP1;P2;durP2;ratioP2
59127;SDS011;44912;52.754;5.994;2022-09-12T00:01:06;5.43;;;2.80;;
59127;SDS011;44912;52.754;5.994;2022-09-12T00:03:34;4.28;;;3.00;;
59127;SDS011;44912;52.754;5.994;2022-09-12T00:06:06;4.75;;;3.08;;
59127;SDS011;44912;52.754;5.994;2022-09-12T00:08:33;5.88;;;3.05;;
59127;SDS011;44912;52.754;5.994;2022-09-12T00:11:02;3.97;;;2.75;;
59127;SDS011;44912;52.754;5.994;2022-09-12T00:13:29;4.13;;;2.65;;
59127;SDS011;44912;52.754;5.994;2022-09-12T00:15:55;3.88;;;2.70;;
59127;SDS011;44912;52.754;5.994;2022-09-12T00:18:20;3.83;;;2.83;;
59127;SDS011;44912;52.754;5.994;2022-09-12T00:20:46;4.18;;;3.10;;
59127;SDS011;44912;52.754;5.994;2022-09-12T00:23:12;129.23;;;5.50;;
59127;SDS011;44912;52.754;5.994;2022-09-12T00:25:45;2.45;;;1.90;;
59127;SDS011;44912;52.754;5.994;2022-09-12T00:28:12;2.40;;;2.00;;
59127;SDS011;44912;52.754;5.994;2022-09-12T00:30:44;3.80;;;2.70;;
59127;SDS011;44912;52.754;5.994;2022-09-12T00:33:12;3.65;;;2.60;;
59127;SDS011;44912;52.754;5.994;2022-09-12T00:35:49;1.92;;;1.40;;
59127;SDS011;44912;52.754;5.994;2022-09-12T00:38:18;2.88;;;2.03;;
59127;SDS011;44912;52.754;5.994;2022-09-12T00:40:44;5.05;;;3.53;;
59127;SDS011;44912;52.754;5.994;2022-09-12T00:43:12;5.40;;;3.22;;
59127;SDS011;44912;52.754;5.994;2022-09-12T00:45:59;4.05;;;2.83;;
59127;SDS011;44912;52.754;5.994;2022-09-12T00:48:31;4.68;;;3.10;;
59127;SDS011;44912;52.754;5.994;2022-09-12T00:51:02;5.95;;;3.25;;
59127;SDS011;44912;52.754;5.994;2022-09-12T00:53:28;5.53;;;3.22;;
59127;SDS011;44912;52.754;5.994;2022-09-12T00:55:54;5.10;;;3.20;;
59127;SDS011;44912;52.754;5.994;2022-09-12T00:58:24;24.20;;;3.67;;
59127;SDS011;44912;52.754;5.994;2022-09-12T01:00:54;60.10;;;3.42;;
59127;SDS011;44912;52.754;5.994;2022-09-12T01:03:21;158.10;;;5.85;;
59127;SDS011;44912;52.754;5.994;2022-09-12T01:05:52;54.13;;;3.15;;
59127;SDS011;44912;52.754;5.994;2022-09-12T01:08:25;18.40;;;2.10;;
59127;SDS011;44912;52.754;5.994;2022-09-12T01:10:52;4.13;;;2.60;;
59127;SDS011;44912;52.754;5.994;2022-09-12T01:13:19;3.75;;;2.42;;
59127;SDS011;44912;52.754;5.994;2022-09-12T01:15:45;4.10;;;2.40;;
59127;SDS011;44912;52.754;5.994;2022-09-12T01:18:19;4.53;;;2.78;;
59127;SDS011;44912;52.754;5.994;2022-09-12T01:23:44;6.10;;;4.50;;
59127;SDS011;44912;52.754;5.994;2022-09-12T01:29:33;6.35;;;4.63;;
59127;SDS011;44912;52.754;5.994;2022-09-12T01:35:14;8.50;;;5.93;;
59127;SDS011;44912;52.754;5.994;2022-09-12T01:40:51;11.52;;;7.57;;
59127;SDS011;44912;52.754;5.994;2022-09-12T01:43:35;9.75;;;7.57;;
59127;SDS011;44912;52.754;5.994;2022-09-12T01:46:15;9.70;;;6.60;;
59127;SDS011;44912;52.754;5.994;2022-09-12T01:49:12;10.60;;;7.82;;
59127;SDS011;44912;52.754;5.994;2022-09-12T01:51:59;12.38;;;9.60;;
59127;SDS011;44912;52.754;5.994;2022-09-12T01:54:56;9.57;;;7.90;;
59127;SDS011;44912;52.754;5.994;2022-09-12T01:57:43;12.60;;;11.10;;
59127;SDS011;44912;52.754;5.994;2022-09-12T02:00:19;14.00;;;11.57;;
59127;SDS011;44912;52.754;5.994;2022-09-12T02:02:47;13.48;;;11.02;;
59127;SDS011;44912;52.754;5.994;2022-09-12T02:05:35;14.82;;;12.15;;
59127;SDS011;44912;52.754;5.994;2022-09-12T02:08:08;10.35;;;8.27;;
59127;SDS011;44912;52.754;5.994;2022-09-12T02:10:42;12.43;;;10.40;;
59127;SDS011;44912;52.754;5.994;2022-09-12T02:16:00;11.88;;;9.65;;
59127;SDS011;44912;52.754;5.994;2022-09-12T02:18:50;13.90;;;9.40;;
59127;SDS011;44912;52.754;5.994;2022-09-12T02:21:19;10.88;;;8.25;;
59127;SDS011;44912;52.754;5.994;2022-09-12T02:23:49;15.27;;;10.05;;
59127;SDS011;44912;52.754;5.994;2022-09-12T02:26:32;13.50;;;12.05;;
59127;SDS011;44912;52.754;5.994;2022-09-12T02:29:00;13.88;;;12.00;;
59127;SDS011;44912;52.754;5.994;2022-09-12T02:31:37;15.88;;;13.65;;
59127;SDS011;44912;52.754;5.994;2022-09-12T02:37:14;17.73;;;15.93;;
59127;SDS011;44912;52.754;5.994;2022-09-12T02:39:50;19.75;;;16.10;;
59127;SDS011;44912;52.754;5.994;2022-09-12T02:42:19;22.13;;;19.02;;
59127;SDS011;44912;52.754;5.994;2022-09-12T02:44:46;19.40;;;17.30;;
59127;SDS011;44912;52.754;5.994;2022-09-12T02:47:22;21.15;;;18.83;;
59127;SDS011;44912;52.754;5.994;2022-09-12T02:50:06;21.08;;;17.77;;
59127;SDS011;44912;52.754;5.994;2022-09-12T02:52:32;21.67;;;19.25;;
59127;SDS011;44912;52.754;5.994;2022-09-12T02:54:59;22.27;;;19.98;;
59127;SDS011;44912;52.754;5.994;2022-09-12T02:57:26;22.08;;;19.10;;
59127;SDS011;44912;52.754;5.994;2022-09-12T02:59:52;22.45;;;20.05;;
59127;SDS011;44912;52.754;5.994;2022-09-12T03:02:24;24.20;;;20.73;;
59127;SDS011;44912;52.754;5.994;2022-09-12T03:05:04;24.25;;;21.63;;
59127;SDS011;44912;52.754;5.994;2022-09-12T03:10:40;23.33;;;20.83;;
59127;SDS011;44912;52.754;5.994;2022-09-12T03:13:23;23.30;;;20.10;;
59127;SDS011;44912;52.754;5.994;2022-09-12T03:18:57;21.42;;;19.13;;
59127;SDS011;44912;52.754;5.994;2022-09-12T03:21:51;20.80;;;18.17;;
59127;SDS011;44912;52.754;5.994;2022-09-12T03:24:48;24.88;;;21.08;;
59127;SDS011;44912;52.754;5.994;2022-09-12T03:27:37;26.77;;;23.60;;
59127;SDS011;44912;52.754;5.994;2022-09-12T03:30:07;27.40;;;23.38;;
59127;SDS011;44912;52.754;5.994;2022-09-12T03:32:45;25.42;;;22.52;;
59127;SDS011;44912;52.754;5.994;2022-09-12T03:35:15;30.15;;;22.67;;
59127;SDS011;44912;52.754;5.994;2022-09-12T03:37:42;26.95;;;23.33;;
59127;SDS011;44912;52.754;5.994;2022-09-12T03:40:08;29.02;;;24.52;;
59127;SDS011;44912;52.754;5.994;2022-09-12T03:42:35;27.00;;;23.40;;
59127;SDS011;44912;52.754;5.994;2022-09-12T03:45:01;27.25;;;23.08;;
59127;SDS011;44912;52.754;5.994;2022-09-12T03:47:27;30.52;;;24.75;;
59127;SDS011;44912;52.754;5.994;2022-09-12T03:49:53;27.73;;;24.05;;
59127;SDS011;44912;52.754;5.994;2022-09-12T03:52:18;25.70;;;22.42;;
59127;SDS011;44912;52.754;5.994;2022-09-12T03:54:44;30.13;;;25.67;;
59127;SDS011;44912;52.754;5.994;2022-09-12T03:57:09;28.90;;;23.90;;
59127;SDS011;44912;52.754;5.994;2022-09-12T03:59:35;30.73;;;24.02;;
59127;SDS011;44912;52.754;5.994;2022-09-12T04:02:01;28.25;;;24.63;;
59127;SDS011;44912;52.754;5.994;2022-09-12T04:04:28;27.92;;;23.70;;
59127;SDS011;44912;52.754;5.994;2022-09-12T04:06:54;27.67;;;23.45;;
59127;SDS011;44912;52.754;5.994;2022-09-12T04:09:19;26.33;;;22.15;;
59127;SDS011;44912;52.754;5.994;2022-09-12T04:11:45;25.75;;;22.20;;
59127;SDS011;44912;52.754;5.994;2022-09-12T04:14:10;29.20;;;23.52;;
59127;SDS011;44912;52.754;5.994;2022-09-12T04:16:36;28.17;;;23.55;;
59127;SDS011;44912;52.754;5.994;2022-09-12T04:19:02;26.27;;;22.73;;
59127;SDS011;44912;52.754;5.994;2022-09-12T04:21:27;28.40;;;23.63;;
59127;SDS011;44912;52.754;5.994;2022-09-12T04:23:53;29.92;;;23.05;;
59127;SDS011;44912;52.754;5.994;2022-09-12T04:26:19;28.27;;;22.00;;
59127;SDS011;44912;52.754;5.994;2022-09-12T04:28:45;28.23;;;23.02;;
59127;SDS011;44912;52.754;5.994;2022-09-12T04:31:12;28.30;;;24.42;;
59127;SDS011;44912;52.754;5.994;2022-09-12T04:33:41;25.63;;;22.27;;
59127;SDS011;44912;52.754;5.994;2022-09-12T04:36:09;29.75;;;24.60;;
59127;SDS011;44912;52.754;5.994;2022-09-12T04:38:36;30.60;;;24.77;;
59127;SDS011;44912;52.754;5.994;2022-09-12T04:41:09;31.15;;;25.38;;
59127;SDS011;44912;52.754;5.994;2022-09-12T04:43:43;28.98;;;23.40;;
59127;SDS011;44912;52.754;5.994;2022-09-12T04:46:13;31.00;;;25.40;;
59127;SDS011;44912;52.754;5.994;2022-09-12T04:48:40;29.40;;;23.98;;
59127;SDS011;44912;52.754;5.994;2022-09-12T04:51:11;28.00;;;23.63;;
59127;SDS011;44912;52.754;5.994;2022-09-12T04:53:38;27.55;;;23.25;;
59127;SDS011;44912;52.754;5.994;2022-09-12T04:56:05;28.25;;;23.13;;
59127;SDS011;44912;52.754;5.994;2022-09-12T04:58:32;26.92;;;23.17;;
59127;SDS011;44912;52.754;5.994;2022-09-12T05:01:05;29.60;;;23.92;;
59127;SDS011;44912;52.754;5.994;2022-09-12T05:03:35;31.67;;;24.08;;
59127;SDS011;44912;52.754;5.994;2022-09-12T05:06:05;30.75;;;24.23;;
59127;SDS011;44912;52.754;5.994;2022-09-12T05:08:32;30.48;;;24.08;;
59127;SDS011;44912;52.754;5.994;2022-09-12T05:11:09;28.58;;;23.65;;
59127;SDS011;44912;52.754;5.994;2022-09-12T05:13:37;30.80;;;23.52;;
59127;SDS011;44912;52.754;5.994;2022-09-12T05:16:04;28.45;;;23.55;;
59127;SDS011;44912;52.754;5.994;2022-09-12T05:18:32;30.95;;;24.95;;
59127;SDS011;44912;52.754;5.994;2022-09-12T05:20:59;30.42;;;24.27;;
59127;SDS011;44912;52.754;5.994;2022-09-12T05:23:25;32.65;;;26.02;;
59127;SDS011;44912;52.754;5.994;2022-09-12T05:25:52;31.27;;;25.42;;
59127;SDS011;44912;52.754;5.994;2022-09-12T05:28:19;33.22;;;26.08;;
59127;SDS011;44912;52.754;5.994;2022-09-12T05:30:46;32.17;;;25.92;;
59127;SDS011;44912;52.754;5.994;2022-09-12T05:33:12;33.50;;;26.27;;
59127;SDS011;44912;52.754;5.994;2022-09-12T05:35:38;31.63;;;25.27;;
59127;SDS011;44912;52.754;5.994;2022-09-12T05:38:04;35.85;;;27.30;;
59127;SDS011;44912;52.754;5.994;2022-09-12T05:40:31;37.03;;;28.30;;
59127;SDS011;44912;52.754;5.994;2022-09-12T05:42:57;35.25;;;28.10;;
59127;SDS011;44912;52.754;5.994;2022-09-12T05:45:22;35.42;;;26.33;;
59127;SDS011;44912;52.754;5.994;2022-09-12T05:47:48;34.40;;;26.48;;
59127;SDS011;44912;52.754;5.994;2022-09-12T05:50:13;35.10;;;27.00;;
59127;SDS011;44912;52.754;5.994;2022-09-12T05:52:39;36.05;;;27.42;;
59127;SDS011;44912;52.754;5.994;2022-09-12T05:55:05;38.10;;;27.90;;
59127;SDS011;44912;52.754;5.994;2022-09-12T05:57:30;40.67;;;29.52;;
59127;SDS011;44912;52.754;5.994;2022-09-12T05:59:57;42.88;;;29.77;;
59127;SDS011;44912;52.754;5.994;2022-09-12T06:02:23;38.22;;;28.52;;
59127;SDS011;44912;52.754;5.994;2022-09-12T06:04:48;40.35;;;29.58;;
59127;SDS011;44912;52.754;5.994;2022-09-12T06:07:14;37.35;;;29.00;;
59127;SDS011;44912;52.754;5.994;2022-09-12T06:09:39;40.85;;;30.00;;
59127;SDS011;44912;52.754;5.994;2022-09-12T06:12:05;38.78;;;28.88;;
59127;SDS011;44912;52.754;5.994;2022-09-12T06:14:31;43.72;;;30.90;;
59127;SDS011;44912;52.754;5.994;2022-09-12T06:16:57;43.00;;;31.40;;
59127;SDS011;44912;52.754;5.994;2022-09-12T06:19:23;40.50;;;30.45;;
59127;SDS011;44912;52.754;5.994;2022-09-12T06:21:51;42.28;;;30.23;;
59127;SDS011;44912;52.754;5.994;2022-09-12T06:24:18;46.17;;;32.83;;
59127;SDS011;44912;52.754;5.994;2022-09-12T06:26:44;45.92;;;33.78;;
59127;SDS011;44912;52.754;5.994;2022-09-12T06:29:11;45.20;;;32.88;;
59127;SDS011;44912;52.754;5.994;2022-09-12T06:31:38;46.05;;;32.85;;
59127;SDS011;44912;52.754;5.994;2022-09-12T06:34:06;49.22;;;34.58;;
59127;SDS011;44912;52.754;5.994;2022-09-12T06:36:36;53.72;;;36.15;;
59127;SDS011;44912;52.754;5.994;2022-09-12T06:39:08;48.63;;;33.25;;
59127;SDS011;44912;52.754;5.994;2022-09-12T06:41:36;46.65;;;32.00;;
59127;SDS011;44912;52.754;5.994;2022-09-12T06:44:02;51.25;;;35.33;;
59127;SDS011;44912;52.754;5.994;2022-09-12T06:46:28;46.90;;;33.38;;
59127;SDS011;44912;52.754;5.994;2022-09-12T06:48:55;49.15;;;33.75;;
59127;SDS011;44912;52.754;5.994;2022-09-12T06:51:22;57.03;;;37.20;;
59127;SDS011;44912;52.754;5.994;2022-09-12T06:53:48;51.33;;;33.80;;
59127;SDS011;44912;52.754;5.994;2022-09-12T06:56:16;48.78;;;34.75;;
59127;SDS011;44912;52.754;5.994;2022-09-12T06:58:43;52.75;;;35.75;;
59127;SDS011;44912;52.754;5.994;2022-09-12T07:03:41;53.83;;;37.95;;
59127;SDS011;44912;52.754;5.994;2022-09-12T07:06:09;54.97;;;37.97;;
59127;SDS011;44912;52.754;5.994;2022-09-12T07:08:36;56.78;;;39.63;;
59127;SDS011;44912;52.754;5.994;2022-09-12T07:11:10;56.60;;;38.05;;
59127;SDS011;44912;52.754;5.994;2022-09-12T07:13:47;56.25;;;38.15;;
59127;SDS011;44912;52.754;5.994;2022-09-12T07:16:14;56.72;;;38.38;;
59127;SDS011;44912;52.754;5.994;2022-09-12T07:18:40;56.05;;;37.75;;
59127;SDS011;44912;52.754;5.994;2022-09-12T07:21:09;58.70;;;38.92;;
59127;SDS011;44912;52.754;5.994;2022-09-12T07:23:36;53.15;;;36.83;;
59127;SDS011;44912;52.754;5.994;2022-09-12T07:26:02;57.00;;;38.20;;
59127;SDS011;44912;52.754;5.994;2022-09-12T07:28:29;57.22;;;38.10;;
59127;SDS011;44912;52.754;5.994;2022-09-12T07:30:56;55.63;;;38.88;;
59127;SDS011;44912;52.754;5.994;2022-09-12T07:33:23;56.72;;;38.75;;
59127;SDS011;44912;52.754;5.994;2022-09-12T07:35:51;56.50;;;37.22;;
59127;SDS011;44912;52.754;5.994;2022-09-12T07:38:18;59.42;;;39.60;;
59127;SDS011;44912;52.754;5.994;2022-09-12T07:40:46;53.92;;;38.15;;
59127;SDS011;44912;52.754;5.994;2022-09-12T07:43:12;60.13;;;38.90;;
59127;SDS011;44912;52.754;5.994;2022-09-12T07:45:37;55.00;;;37.20;;
59127;SDS011;44912;52.754;5.994;2022-09-12T07:48:06;57.13;;;38.78;;
59127;SDS011;44912;52.754;5.994;2022-09-12T07:50:32;55.80;;;38.50;;
59127;SDS011;44912;52.754;5.994;2022-09-12T07:52:57;60.58;;;38.33;;
59127;SDS011;44912;52.754;5.994;2022-09-12T07:55:23;57.67;;;38.67;;
59127;SDS011;44912;52.754;5.994;2022-09-12T07:57:52;58.97;;;38.55;;
59127;SDS011;44912;52.754;5.994;2022-09-12T08:00:17;57.17;;;38.25;;
59127;SDS011;44912;52.754;5.994;2022-09-12T08:02:43;53.35;;;37.53;;
59127;SDS011;44912;52.754;5.994;2022-09-12T08:05:09;54.90;;;37.40;;
59127;SDS011;44912;52.754;5.994;2022-09-12T08:07:35;56.38;;;36.97;;
59127;SDS011;44912;52.754;5.994;2022-09-12T08:10:00;55.08;;;36.58;;
59127;SDS011;44912;52.754;5.994;2022-09-12T08:12:26;55.80;;;37.10;;
59127;SDS011;44912;52.754;5.994;2022-09-12T08:14:53;58.53;;;37.90;;
59127;SDS011;44912;52.754;5.994;2022-09-12T08:17:18;53.75;;;36.92;;
59127;SDS011;44912;52.754;5.994;2022-09-12T08:19:44;56.28;;;37.15;;
59127;SDS011;44912;52.754;5.994;2022-09-12T08:22:10;54.40;;;37.83;;
59127;SDS011;44912;52.754;5.994;2022-09-12T08:24:36;53.88;;;36.45;;
59127;SDS011;44912;52.754;5.994;2022-09-12T08:27:03;58.00;;;36.40;;
59127;SDS011;44912;52.754;5.994;2022-09-12T08:29:29;53.60;;;35.78;;
59127;SDS011;44912;52.754;5.994;2022-09-12T08:31:55;55.50;;;37.08;;
59127;SDS011;44912;52.754;5.994;2022-09-12T08:34:21;52.88;;;36.28;;
59127;SDS011;44912;52.754;5.994;2022-09-12T08:36:46;52.47;;;34.75;;
59127;SDS011;44912;52.754;5.994;2022-09-12T08:39:12;54.75;;;36.70;;
59127;SDS011;44912;52.754;5.994;2022-09-12T08:41:40;54.00;;;36.45;;
59127;SDS011;44912;52.754;5.994;2022-09-12T08:49:24;55.30;;;35.97;;
59127;SDS011;44912;52.754;5.994;2022-09-12T08:51:58;50.97;;;35.72;;
59127;SDS011;44912;52.754;5.994;2022-09-12T08:54:29;51.97;;;36.08;;
59127;SDS011;44912;52.754;5.994;2022-09-12T08:57:07;51.38;;;35.35;;
59127;SDS011;44912;52.754;5.994;2022-09-12T08:59:36;52.03;;;35.35;;
59127;SDS011;44912;52.754;5.994;2022-09-12T09:02:04;53.45;;;35.83;;
59127;SDS011;44912;52.754;5.994;2022-09-12T09:08:29;54.63;;;35.75;;
59127;SDS011;44912;52.754;5.994;2022-09-12T09:17:33;53.13;;;35.22;;
59127;SDS011;44912;52.754;5.994;2022-09-12T09:20:12;51.95;;;35.40;;
59127;SDS011;44912;52.754;5.994;2022-09-12T09:22:56;48.90;;;35.55;;
59127;SDS011;44912;52.754;5.994;2022-09-12T09:31:03;52.60;;;35.22;;
59127;SDS011;44912;52.754;5.994;2022-09-12T09:33:33;47.42;;;33.40;;
59127;SDS011;44912;52.754;5.994;2022-09-12T09:36:02;51.88;;;35.10;;
59127;SDS011;44912;52.754;5.994;2022-09-12T09:38:54;46.10;;;32.40;;
59127;SDS011;44912;52.754;5.994;2022-09-12T09:44:26;45.58;;;32.58;;
59127;SDS011;44912;52.754;5.994;2022-09-12T09:46:53;46.47;;;33.13;;
59127;SDS011;44912;52.754;5.994;2022-09-12T09:49:22;48.45;;;33.85;;
59127;SDS011;44912;52.754;5.994;2022-09-12T09:51:50;43.15;;;32.78;;
59127;SDS011;44912;52.754;5.994;2022-09-12T09:54:23;45.65;;;31.92;;
59127;SDS011;44912;52.754;5.994;2022-09-12T09:56:55;44.85;;;31.15;;
59127;SDS011;44912;52.754;5.994;2022-09-12T09:59:25;42.67;;;31.05;;
59127;SDS011;44912;52.754;5.994;2022-09-12T10:04:40;37.42;;;28.90;;
59127;SDS011;44912;52.754;5.994;2022-09-12T10:07:18;39.78;;;29.25;;
59127;SDS011;44912;52.754;5.994;2022-09-12T10:12:38;36.50;;;26.08;;
59127;SDS011;44912;52.754;5.994;2022-09-12T10:15:15;36.13;;;27.38;;
59127;SDS011;44912;52.754;5.994;2022-09-12T10:17:42;35.67;;;26.92;;
59127;SDS011;44912;52.754;5.994;2022-09-12T10:22:58;28.20;;;21.58;;
59127;SDS011;44912;52.754;5.994;2022-09-12T10:25:26;29.55;;;22.45;;
59127;SDS011;44912;52.754;5.994;2022-09-12T10:27:56;31.10;;;22.75;;
59127;SDS011;44912;52.754;5.994;2022-09-12T10:30:24;30.42;;;22.23;;
59127;SDS011;44912;52.754;5.994;2022-09-12T10:32:52;30.92;;;21.95;;
59127;SDS011;44912;52.754;5.994;2022-09-12T10:35:23;25.83;;;20.33;;
59127;SDS011;44912;52.754;5.994;2022-09-12T10:37:57;26.00;;;19.42;;
59127;SDS011;44912;52.754;5.994;2022-09-12T10:40:33;28.55;;;20.55;;
59127;SDS011;44912;52.754;5.994;2022-09-12T10:43:02;27.48;;;19.88;;
59127;SDS011;44912;52.754;5.994;2022-09-12T10:45:41;27.63;;;20.13;;
59127;SDS011;44912;52.754;5.994;2022-09-12T10:50:50;26.98;;;19.77;;
59127;SDS011;44912;52.754;5.994;2022-09-12T10:53:20;31.05;;;20.77;;
59127;SDS011;44912;52.754;5.994;2022-09-12T10:58:31;25.75;;;17.98;;
59127;SDS011;44912;52.754;5.994;2022-09-12T11:06:57;22.98;;;16.23;;
59127;SDS011;44912;52.754;5.994;2022-09-12T11:09:53;21.20;;;15.35;;
59127;SDS011;44912;52.754;5.994;2022-09-12T11:12:29;18.95;;;13.57;;
59127;SDS011;44912;52.754;5.994;2022-09-12T11:23:56;14.48;;;10.02;;
59127;SDS011;44912;52.754;5.994;2022-09-12T11:29:19;12.52;;;8.85;;
59127;SDS011;44912;52.754;5.994;2022-09-12T11:35:04;11.85;;;7.60;;
59127;SDS011;44912;52.754;5.994;2022-09-12T11:40:36;11.55;;;7.97;;
59127;SDS011;44912;52.754;5.994;2022-09-12T11:43:25;12.40;;;7.95;;
59127;SDS011;44912;52.754;5.994;2022-09-12T11:45:58;12.13;;;8.38;;
59127;SDS011;44912;52.754;5.994;2022-09-12T11:51:32;9.18;;;5.15;;
59127;SDS011;44912;52.754;5.994;2022-09-12T11:54:12;9.20;;;6.03;;
59127;SDS011;44912;52.754;5.994;2022-09-12T11:56:45;8.98;;;5.75;;
59127;SDS011;44912;52.754;5.994;2022-09-12T11:59:45;7.75;;;5.13;;
59127;SDS011;44912;52.754;5.994;2022-09-12T12:02:10;8.57;;;5.50;;
59127;SDS011;44912;52.754;5.994;2022-09-12T12:05:56;8.55;;;5.32;;
59127;SDS011;44912;52.754;5.994;2022-09-12T12:08:22;8.88;;;6.30;;
59127;SDS011;44912;52.754;5.994;2022-09-12T12:13:27;7.57;;;5.45;;
59127;SDS011;44912;52.754;5.994;2022-09-12T12:16:07;10.70;;;7.15;;
59127;SDS011;44912;52.754;5.994;2022-09-12T12:18:40;10.77;;;6.28;;
59127;SDS011;44912;52.754;5.994;2022-09-12T12:21:17;8.30;;;5.22;;
59127;SDS011;44912;52.754;5.994;2022-09-12T12:24:01;8.35;;;5.20;;
59127;SDS011;44912;52.754;5.994;2022-09-12T12:29:35;9.55;;;4.93;;
59127;SDS011;44912;52.754;5.994;2022-09-12T12:34:42;8.25;;;5.57;;
59127;SDS011;44912;52.754;5.994;2022-09-12T12:44:56;9.80;;;5.85;;
59127;SDS011;44912;52.754;5.994;2022-09-12T12:47:22;9.27;;;5.07;;
59127;SDS011;44912;52.754;5.994;2022-09-12T12:49:55;9.35;;;5.68;;
59127;SDS011;44912;52.754;5.994;2022-09-12T12:52:24;10.40;;;5.85;;
59127;SDS011;44912;52.754;5.994;2022-09-12T12:54:55;8.30;;;5.68;;
59127;SDS011;44912;52.754;5.994;2022-09-12T13:02:37;11.10;;;6.13;;
59127;SDS011;44912;52.754;5.994;2022-09-12T13:05:17;9.82;;;5.57;;
59127;SDS011;44912;52.754;5.994;2022-09-12T13:07:46;7.70;;;5.10;;
59127;SDS011;44912;52.754;5.994;2022-09-12T13:10:20;8.53;;;6.23;;
59127;SDS011;44912;52.754;5.994;2022-09-12T13:17:59;8.90;;;5.97;;
59127;SDS011;44912;52.754;5.994;2022-09-12T13:20:43;11.30;;;6.20;;
59127;SDS011;44912;52.754;5.994;2022-09-12T13:23:33;11.63;;;5.20;;
59127;SDS011;44912;52.754;5.994;2022-09-12T13:25:59;9.25;;;4.70;;
59127;SDS011;44912;52.754;5.994;2022-09-12T13:28:27;9.38;;;5.38;;
59127;SDS011;44912;52.754;5.994;2022-09-12T13:30:55;7.55;;;5.25;;
59127;SDS011;44912;52.754;5.994;2022-09-12T13:33:35;8.38;;;4.90;;
59127;SDS011;44912;52.754;5.994;2022-09-12T13:39:08;8.55;;;5.15;;
59127;SDS011;44912;52.754;5.994;2022-09-12T13:41:58;9.15;;;5.30;;
59127;SDS011;44912;52.754;5.994;2022-09-12T13:44:45;8.50;;;4.47;;
59127;SDS011;44912;52.754;5.994;2022-09-12T13:47:15;9.02;;;4.40;;
59127;SDS011;44912;52.754;5.994;2022-09-12T13:49:47;8.35;;;4.63;;
59127;SDS011;44912;52.754;5.994;2022-09-12T13:54:43;7.53;;;4.10;;
59127;SDS011;44912;52.754;5.994;2022-09-12T13:59:54;7.03;;;4.22;;
59127;SDS011;44912;52.754;5.994;2022-09-12T14:02:23;7.13;;;3.70;;
59127;SDS011;44912;52.754;5.994;2022-09-12T14:04:51;8.65;;;4.38;;
59127;SDS011;44912;52.754;5.994;2022-09-12T14:07:57;6.97;;;3.83;;
59127;SDS011;44912;52.754;5.994;2022-09-12T14:10:35;6.95;;;3.70;;
59127;SDS011;44912;52.754;5.994;2022-09-12T14:13:07;8.43;;;4.13;;
59127;SDS011;44912;52.754;5.994;2022-09-12T14:15:49;7.78;;;4.25;;
59127;SDS011;44912;52.754;5.994;2022-09-12T14:18:21;6.78;;;3.67;;
59127;SDS011;44912;52.754;5.994;2022-09-12T14:20:51;5.53;;;3.35;;
59127;SDS011;44912;52.754;5.994;2022-09-12T14:23:23;6.18;;;3.85;;
59127;SDS011;44912;52.754;5.994;2022-09-12T14:25:51;5.82;;;3.30;;
59127;SDS011;44912;52.754;5.994;2022-09-12T14:28:19;6.47;;;3.90;;
59127;SDS011;44912;52.754;5.994;2022-09-12T14:31:04;6.90;;;3.72;;
59127;SDS011;44912;52.754;5.994;2022-09-12T14:33:53;6.53;;;3.88;;
59127;SDS011;44912;52.754;5.994;2022-09-12T14:36:34;7.95;;;3.90;;
59127;SDS011;44912;52.754;5.994;2022-09-12T14:39:14;5.90;;;3.28;;
59127;SDS011;44912;52.754;5.994;2022-09-12T14:44:29;5.13;;;3.20;;
59127;SDS011;44912;52.754;5.994;2022-09-12T14:46:55;9.10;;;4.15;;
59127;SDS011;44912;52.754;5.994;2022-09-12T14:49:43;5.60;;;3.55;;
59127;SDS011;44912;52.754;5.994;2022-09-12T14:54:57;6.70;;;2.85;;
59127;SDS011;44912;52.754;5.994;2022-09-12T14:57:35;4.72;;;3.00;;
59127;SDS011;44912;52.754;5.994;2022-09-12T15:02:41;6.30;;;3.50;;
59127;SDS011;44912;52.754;5.994;2022-09-12T15:07:50;7.30;;;3.20;;
59127;SDS011;44912;52.754;5.994;2022-09-12T15:10:23;5.30;;;3.10;;
59127;SDS011;44912;52.754;5.994;2022-09-12T15:13:03;6.28;;;3.33;;
59127;SDS011;44912;52.754;5.994;2022-09-12T15:15:42;5.10;;;2.97;;
59127;SDS011;44912;52.754;5.994;2022-09-12T15:18:09;5.15;;;3.00;;
59127;SDS011;44912;52.754;5.994;2022-09-12T15:20:35;5.28;;;2.78;;
59127;SDS011;44912;52.754;5.994;2022-09-12T15:23:03;5.60;;;3.22;;
59127;SDS011;44912;52.754;5.994;2022-09-12T15:25:30;5.45;;;3.03;;
59127;SDS011;44912;52.754;5.994;2022-09-12T15:27:56;6.40;;;2.88;;
59127;SDS011;44912;52.754;5.994;2022-09-12T15:30:21;4.97;;;2.90;;
59127;SDS011;44912;52.754;5.994;2022-09-12T15:32:47;5.70;;;2.83;;
59127;SDS011;44912;52.754;5.994;2022-09-12T15:35:17;5.45;;;2.80;;
59127;SDS011;44912;52.754;5.994;2022-09-12T15:37:46;5.65;;;3.05;;
59127;SDS011;44912;52.754;5.994;2022-09-12T15:40:12;5.03;;;3.17;;
59127;SDS011;44912;52.754;5.994;2022-09-12T15:42:39;5.75;;;3.40;;
59127;SDS011;44912;52.754;5.994;2022-09-12T15:45:11;5.30;;;2.90;;
59127;SDS011;44912;52.754;5.994;2022-09-12T15:47:43;5.25;;;2.78;;
59127;SDS011;44912;52.754;5.994;2022-09-12T15:50:09;5.97;;;3.33;;
59127;SDS011;44912;52.754;5.994;2022-09-12T15:52:35;5.18;;;2.92;;
59127;SDS011;44912;52.754;5.994;2022-09-12T15:55:01;5.32;;;3.25;;
59127;SDS011;44912;52.754;5.994;2022-09-12T15:57:28;4.95;;;3.13;;
59127;SDS011;44912;52.754;5.994;2022-09-12T15:59:53;6.72;;;3.17;;
59127;SDS011;44912;52.754;5.994;2022-09-12T16:02:19;6.78;;;3.22;;
59127;SDS011;44912;52.754;5.994;2022-09-12T16:04:44;7.75;;;3.42;;
59127;SDS011;44912;52.754;5.994;2022-09-12T16:07:12;5.13;;;2.97;;
59127;SDS011;44912;52.754;5.994;2022-09-12T16:09:37;5.07;;;2.80;;
59127;SDS011;44912;52.754;5.994;2022-09-12T16:12:03;5.47;;;3.10;;
59127;SDS011;44912;52.754;5.994;2022-09-12T16:14:29;6.85;;;2.90;;
59127;SDS011;44912;52.754;5.994;2022-09-12T16:16:55;5.88;;;2.80;;
59127;SDS011;44912;52.754;5.994;2022-09-12T16:19:20;4.40;;;3.20;;
59127;SDS011;44912;52.754;5.994;2022-09-12T16:21:46;4.97;;;3.40;;
59127;SDS011;44912;52.754;5.994;2022-09-12T16:24:12;5.35;;;3.20;;
59127;SDS011;44912;52.754;5.994;2022-09-12T16:26:37;5.78;;;3.30;;
59127;SDS011;44912;52.754;5.994;2022-09-12T16:29:03;6.03;;;3.58;;
59127;SDS011;44912;52.754;5.994;2022-09-12T16:31:29;7.25;;;4.28;;
59127;SDS011;44912;52.754;5.994;2022-09-12T16:33:54;7.53;;;4.60;;
59127;SDS011;44912;52.754;5.994;2022-09-12T16:36:21;9.13;;;4.60;;
59127;SDS011;44912;52.754;5.994;2022-09-12T16:38:48;7.57;;;4.18;;
59127;SDS011;44912;52.754;5.994;2022-09-12T16:41:16;8.65;;;4.20;;
59127;SDS011;44912;52.754;5.994;2022-09-12T16:43:43;7.30;;;4.00;;
59127;SDS011;44912;52.754;5.994;2022-09-12T16:46:10;6.82;;;3.92;;
59127;SDS011;44912;52.754;5.994;2022-09-12T16:48:41;5.72;;;3.47;;
59127;SDS011;44912;52.754;5.994;2022-09-12T16:51:13;6.90;;;3.80;;
59127;SDS011;44912;52.754;5.994;2022-09-12T16:53:40;6.05;;;3.70;;
59127;SDS011;44912;52.754;5.994;2022-09-12T16:56:06;7.55;;;3.60;;
59127;SDS011;44912;52.754;5.994;2022-09-12T16:58:33;8.93;;;3.97;;
59127;SDS011;44912;52.754;5.994;2022-09-12T17:01:00;7.25;;;4.38;;
59127;SDS011;44912;52.754;5.994;2022-09-12T17:03:31;9.48;;;5.05;;
59127;SDS011;44912;52.754;5.994;2022-09-12T17:06:02;8.02;;;5.38;;
59127;SDS011;44912;52.754;5.994;2022-09-12T17:08:32;7.88;;;5.05;;
59127;SDS011;44912;52.754;5.994;2022-09-12T17:10:59;6.85;;;4.40;;